Tonica, Illinois
Current Conditions -  °F | °C
As of 5:35 AM on Tuesday 21 Oct 2014 (Local Time) from KVYS Reporting Station
Clear Clear  
Wind Chill: 38°   Ceiling: Unl
Heat Index: 42°   Visibility: 10mi
Dew Point: 40°   Wind: 8mph
Humidity: 90%   Direction: 340°NNW
Pressure: 30.09"   Gusts: NA
Location:  41.22°N, 89.07°W
Report Text: KVYS 211035Z AUTO 34007KT 10SM CLR 06/04 A3009 RMK AO2 T00580043
Loading
Personal Weather Stations






























Interactive Weather Map
Tropical Storm Tracking
New forecast layout! Learn more

10-Day Weather Forecast

Advertisements
Track Severe Weather on mobile